| time (UTC) | temp C | wind direction | speed KPH | gust KPH | rain 1hr cm | rain 24hr cm | rain mn cm | humidity % | barometer mb |
| 20260507084517 | 8 | 52 | 0.0 | 3.2 | 0.00 | 1.27 | 0.33 | 1 | 1005.8 |
| 20260507083014 | 8 | 78 | 1.6 | 3.2 | 0.00 | 1.27 | 0.33 | 1 | 1005.1 |
| 20260507081508 | 8 | 71 | 0.0 | 0.0 | 0.00 | 1.27 | 0.33 | 1 | 1005.6 |
| 20260507080005 | 8 | 75 | 0.0 | 0.0 | 0.00 | 1.27 | 0.33 | 1 | 1005.1 |
| 20260507074606 | 8 | 75 | 0.0 | 0.0 | 0.00 | 1.27 | 0.33 | 1 | 1005.0 |
| 20260507073133 | 9 | 75 | 0.0 | 0.0 | 0.00 | 1.27 | 0.33 | 1 | 1005.1 |
| 20260507071551 | 9 | 75 | 0.0 | 0.0 | 0.00 | 1.27 | 0.33 | 1 | 1004.9 |
| 20260507070047 | 9 | 75 | 0.0 | 0.0 | 0.00 | 1.27 | 0.33 | 1 | 1004.7 |
| 20260507064557 | 9 | 75 | 0.0 | 0.0 | 0.00 | 1.27 | 0.33 | 1 | 1004.4 |
| 20260507063046 | 9 | 75 | 0.0 | 1.6 | 0.00 | 1.27 | 0.33 | 1 | 1004.4 |
| 20260507061538 | 10 | 78 | 0.0 | 3.2 | 0.03 | 1.27 | 0.33 | 1 | 1004.1 |
| 20260507060029 | 10 | 79 | 0.0 | 3.2 | 0.03 | 1.27 | 0.33 | 1 | 1004.2 |
| 20260507054525 | 10 | 78 | 0.0 | 1.6 | 0.05 | 1.27 | 0.33 | 1 | 1004.2 |
| 20260507053024 | 10 | 207 | 0.0 | 4.8 | 0.13 | 1.27 | 0.33 | 1 | 1004.1 |
| 20260507051516 | 11 | 110 | 0.0 | 3.2 | 0.23 | 1.24 | 0.30 | 1 | 1004.1 |
| 20260507050011 | 11 | 44 | 0.0 | 3.2 | 0.30 | 1.24 | 0.30 | 1 | 1003.9 |
| 20260507044509 | 11 | 290 | 0.0 | 4.8 | 0.30 | 1.22 | 0.28 | 1 | 1004.0 |
| 20260507043003 | 11 | 71 | 3.2 | 12.9 | 0.23 | 1.14 | 0.20 | 1 | 1003.9 |
| 20260507041608 | 11 | 21 | 0.0 | 4.8 | 0.13 | 1.02 | 0.08 | 1 | 1004.2 |
| 20260507040105 | 11 | 66 | 0.0 | 1.6 | 0.05 | 0.94 | 0.00 | 1 | 1003.5 |
| 20260507034608 | 11 | 66 | 1.6 | 8.0 | 0.03 | 0.91 | 0.91 | 1 | 1003.4 |
| 20260507033102 | 11 | 249 | 0.0 | 4.8 | 0.03 | 0.91 | 0.91 | 1 | 1002.9 |
| 20260507031541 | 11 | 242 | 3.2 | 9.7 | 0.00 | 0.89 | 0.89 | 1 | 1003.0 |
| 20260507030038 | 11 | 231 | 1.6 | 12.9 | 0.00 | 0.89 | 0.89 | 1 | 1002.8 |
| 20260507024533 | 11 | 211 | 3.2 | 11.3 | 0.00 | 0.89 | 0.89 | 1 | 1003.2 |
| 20260507023029 | 11 | 309 | 4.8 | 14.5 | 0.03 | 0.89 | 0.89 | 1 | 1003.3 |
| 20260507021525 | 11 | 261 | 6.4 | 16.1 | 0.05 | 0.89 | 0.89 | 1 | 1003.4 |
| 20260507020021 | 11 | 223 | 3.2 | 16.1 | 0.08 | 0.89 | 0.89 | 1 | 1003.6 |
| 20260507014520 | 11 | 198 | 9.7 | 17.7 | 0.10 | 0.89 | 0.89 | 1 | 1003.8 |
| 20260507013014 | 11 | 294 | 6.4 | 14.5 | 0.08 | 0.86 | 0.86 | 1 | 1003.9 |
| 20260507011508 | 11 | 294 | 6.4 | 17.7 | 0.05 | 0.84 | 0.84 | 1 | 1004.0 |
| 20260507010012 | 11 | 209 | 8.0 | 16.1 | 0.03 | 0.81 | 0.81 | 1 | 1004.1 |
| 20260507004559 | 11 | 282 | 6.4 | 22.5 | 0.00 | 0.79 | 0.79 | 1 | 1004.2 |
| 20260507003057 | 11 | 214 | 8.0 | 24.1 | 0.00 | 0.79 | 0.79 | 1 | 1004.2 |
| 20260507001608 | 11 | 229 | 11.3 | 22.5 | 0.00 | 0.79 | 0.79 | 1 | 1004.3 |
| 20260507000046 | 11 | 301 | 9.7 | 20.9 | 0.00 | 0.79 | 0.79 | 1 | 1004.2 |
| 20260506234552 | 11 | 225 | 8.0 | 19.3 | 0.00 | 0.79 | 0.79 | 1 | 1004.2 |
| 20260506233038 | 11 | 258 | 8.0 | 25.7 | 0.00 | 0.79 | 0.79 | 1 | 1004.5 |
| 20260506231536 | 11 | 235 | 6.4 | 22.5 | 0.03 | 0.79 | 0.79 | 1 | 1004.4 |
| 20260506230028 | 12 | 296 | 9.7 | 25.7 | 0.05 | 0.79 | 0.79 | 1 | 1004.5 |
| 20260506224528 | 12 | 215 | 12.9 | 35.4 | 0.05 | 0.79 | 0.79 | 1 | 1004.6 |
| 20260506223021 | 12 | 205 | 11.3 | 22.5 | 0.05 | 0.79 | 0.79 | 1 | 1004.8 |
| 20260506221514 | 12 | 228 | 9.7 | 17.7 | 0.08 | 0.76 | 0.76 | 1 | 1004.9 |
| 20260506220027 | 12 | 217 | 8.0 | 19.3 | 0.15 | 0.71 | 0.71 | 1 | 1005.0 |
| 20260506214506 | 12 | 178 | 8.0 | 17.7 | 0.20 | 0.71 | 0.71 | 1 | 1004.9 |
| 20260506213002 | 12 | 194 | 9.7 | 17.7 | 0.23 | 0.71 | 0.71 | 1 | 1005.1 |
| 20260506211559 | 12 | 192 | 9.7 | 17.7 | 0.20 | 0.69 | 0.69 | 1 | 1005.2 |
| 20260506210055 | 12 | 239 | 4.8 | 17.7 | 0.15 | 0.58 | 0.58 | 1 | 1005.4 |
| 20260506204553 | 12 | 264 | 9.7 | 17.7 | 0.20 | 0.53 | 0.53 | 1 | 1005.4 |
| 20260506203057 | 12 | 217 | 6.4 | 16.1 | 0.23 | 0.51 | 0.51 | 1 | 1005.2 |
| 20260506201544 | 12 | 204 | 4.8 | 14.5 | 0.28 | 0.48 | 0.48 | 1 | 1005.5 |
| 20260506200039 | 12 | 192 | 6.4 | 12.9 | 0.33 | 0.43 | 0.43 | 1 | 1005.6 |
| 20260506194538 | 12 | 202 | 9.7 | 16.1 | 0.30 | 0.33 | 0.33 | 1 | 1006.0 |
| 20260506193030 | 12 | 196 | 8.0 | 16.1 | 0.28 | 0.28 | 0.28 | 1 | 1005.8 |
| 20260506191527 | 12 | 219 | 6.4 | 11.3 | 0.20 | 0.20 | 0.20 | 2 | 1006.1 |
| 20260506190022 | 12 | 335 | 3.2 | 14.5 | 0.10 | 0.10 | 0.10 | 18 | 1005.9 |
| 20260506184521 | 12 | 271 | 4.8 | 20.9 | 0.03 | 0.03 | 0.03 | 35 | 1005.9 |
| 20260506183019 | 12 | 292 | 11.3 | 19.3 | 0.00 | 0.00 | 0.00 | 45 | 1006.0 |
| 20260506181519 | 12 | 267 | 11.3 | 24.1 | 0.00 | 0.00 | 0.00 | 51 | 1006.0 |
| 20260506180016 | 12 | 244 | 11.3 | 24.1 | 0.00 | 0.00 | 0.00 | 51 | 1005.9 |
| 20260506174514 | 12 | 227 | 11.3 | 22.5 | 0.00 | 0.00 | 0.00 | 49 | 1006.1 |
| 20260506173012 | 12 | 215 | 9.7 | 20.9 | 0.00 | 0.00 | 0.00 | 52 | 1006.3 |
| 20260506171508 | 13 | 205 | 9.7 | 19.3 | 0.00 | 0.00 | 0.00 | 57 | 1006.6 |
| 20260506170007 | 13 | 257 | 9.7 | 20.9 | 0.00 | 0.00 | 0.00 | 60 | 1006.8 |
| 20260506164512 | 14 | 208 | 9.7 | 20.9 | 0.00 | 0.00 | 0.00 | 60 | 1007.2 |
| 20260506163005 | 14 | 235 | 11.3 | 19.3 | 0.00 | 0.00 | 0.00 | 56 | 1007.3 |
| 20260506161502 | 14 | 250 | 9.7 | 19.3 | 0.00 | 0.00 | 0.00 | 56 | 1007.7 |
| 20260506160002 | 14 | 285 | 9.7 | 17.7 | 0.00 | 0.00 | 0.00 | 55 | 1007.9 |
| 20260506154507 | 14 | 217 | 12.9 | 20.9 | 0.00 | 0.00 | 0.00 | 54 | 1008.0 |
| 20260506153001 | 14 | 275 | 9.7 | 16.1 | 0.00 | 0.00 | 0.00 | 54 | 1008.2 |
| 20260506151600 | 14 | 200 | 11.3 | 19.3 | 0.00 | 0.00 | 0.00 | 53 | 1007.9 |
| 20260506150105 | 14 | 183 | 6.4 | 14.5 | 0.00 | 0.00 | 0.00 | 49 | 1007.9 |
| 20260506144602 | 13 | 250 | 11.3 | 17.7 | 0.00 | 0.00 | 0.00 | 53 | 1007.8 |
| 20260506143059 | 13 | 198 | 14.5 | 22.5 | 0.00 | 0.00 | 0.00 | 53 | 1007.6 |
| 20260506141557 | 13 | 266 | 9.7 | 20.9 | 0.00 | 0.00 | 0.00 | 52 | 1008.0 |
| 20260506140057 | 13 | 209 | 8.0 | 16.1 | 0.00 | 0.00 | 0.00 | 51 | 1008.3 |
| 20260506134556 | 13 | 196 | 6.4 | 11.3 | 0.00 | 0.00 | 0.00 | 49 | 1008.3 |
| 20260506133106 | 13 | 213 | 8.0 | 14.5 | 0.00 | 0.00 | 0.00 | 54 | 1008.1 |
| 20260506131602 | 14 | 228 | 9.7 | 16.1 | 0.00 | 0.00 | 0.00 | 59 | 1008.1 |
| 20260506130056 | 14 | 300 | 4.8 | 14.5 | 0.00 | 0.00 | 0.00 | 56 | 1008.0 |
| 20260506124555 | 14 | 261 | 4.8 | 14.5 | 0.00 | 0.00 | 0.00 | 54 | 1008.1 |
| 20260506123048 | 13 | 246 | 6.4 | 12.9 | 0.00 | 0.00 | 0.00 | 49 | 1008.2 |
| 20260506121544 | 13 | 248 | 4.8 | 11.3 | 0.00 | 0.00 | 0.00 | 44 | 1008.3 |
| 20260506120042 | 12 | 225 | 3.2 | 8.0 | 0.00 | 0.00 | 0.00 | 33 | 1008.4 |
| 20260506114537 | 12 | 184 | 0.0 | 6.4 | 0.00 | 0.00 | 0.00 | 32 | 1008.5 |
| 20260506113036 | 11 | 189 | 3.2 | 8.0 | 0.00 | 0.00 | 0.00 | 30 | 1008.8 |
| 20260506111534 | 11 | 266 | 1.6 | 6.4 | 0.00 | 0.00 | 0.00 | 28 | 1009.1 |
| 20260506110033 | 11 | 181 | 1.6 | 6.4 | 0.00 | 0.00 | 0.00 | 29 | 1008.8 |
| 20260506104531 | 11 | 163 | 0.0 | 4.8 | 0.00 | 0.00 | 0.00 | 31 | 1008.8 |
| 20260506103037 | 11 | 163 | 1.6 | 4.8 | 0.00 | 0.00 | 0.00 | 34 | 1008.6 |
| 20260506101529 | 11 | 136 | 1.6 | 4.8 | 0.00 | 0.00 | 0.00 | 35 | 1008.5 |
| 20260506100034 | 11 | 97 | 0.0 | 0.0 | 0.00 | 0.00 | 0.00 | 40 | 1008.5 |
| 20260506094531 | 11 | 97 | 0.0 | 3.2 | 0.00 | 0.00 | 0.00 | 44 | 1008.5 |
| 20260506093023 | 11 | 96 | 1.6 | 8.0 | 0.00 | 0.00 | 0.00 | 45 | 1008.5 |
| 20260506091519 | 11 | 189 | 1.6 | 4.8 | 0.00 | 0.00 | 0.00 | 49 | 1008.3 |
| 20260506090017 | 11 | 178 | 4.8 | 12.9 | 0.00 | 0.00 | 0.00 | 51 | 1008.1 |